createdAt,value
2022-08-04T00:00:57.631Z,19.00
2022-08-04T00:03:30.139Z,18.90
2022-08-04T00:06:07.468Z,18.90
2022-08-04T00:08:45.022Z,18.90
2022-08-04T00:11:17.490Z,19.00
2022-08-04T00:14:02.519Z,19.00
2022-08-04T00:16:37.583Z,19.00
2022-08-04T00:19:12.923Z,19.00
2022-08-04T00:21:47.733Z,19.00
2022-08-04T00:24:17.378Z,19.00
2022-08-04T00:26:46.505Z,19.00
2022-08-04T00:29:15.194Z,19.00
2022-08-04T00:31:54.744Z,19.00
2022-08-04T00:34:29.666Z,19.10
2022-08-04T00:36:58.825Z,19.10
2022-08-04T00:39:28.141Z,19.10
2022-08-04T00:42:16.269Z,19.10
2022-08-04T00:44:58.597Z,19.00
2022-08-04T00:47:45.785Z,19.10
2022-08-04T00:50:25.705Z,19.10
2022-08-04T00:53:03.610Z,19.00
2022-08-04T00:55:48.112Z,18.90
2022-08-04T00:58:37.361Z,19.00
2022-08-04T01:01:07.564Z,18.90
2022-08-04T01:03:50.692Z,18.90
2022-08-04T01:06:32.899Z,18.90
2022-08-04T01:09:11.147Z,18.80
2022-08-04T01:12:05.535Z,18.90
2022-08-04T01:15:02.194Z,18.90
2022-08-04T01:17:42.390Z,18.90
2022-08-04T01:20:11.838Z,18.90
2022-08-04T01:23:09.681Z,18.90
2022-08-04T01:26:42.651Z,18.90
2022-08-04T01:29:11.101Z,18.80
2022-08-04T01:32:01.986Z,18.80
2022-08-04T01:34:32.556Z,18.80
2022-08-04T01:37:05.286Z,18.80
2022-08-04T01:39:42.021Z,18.80
2022-08-04T01:42:12.682Z,18.80
2022-08-04T01:45:03.555Z,18.80
2022-08-04T01:47:35.141Z,18.90
2022-08-04T01:50:07.290Z,18.90
2022-08-04T01:52:37.288Z,18.80
2022-08-04T01:55:09.417Z,18.80
2022-08-04T01:57:42.513Z,18.80
2022-08-04T02:00:15.609Z,18.70
2022-08-04T02:02:45.295Z,18.60
2022-08-04T02:05:17.262Z,18.60
2022-08-04T02:08:01.529Z,18.50
2022-08-04T02:10:31.563Z,18.40
2022-08-04T02:13:12.599Z,18.40
2022-08-04T02:15:54.606Z,18.40
2022-08-04T02:18:26.504Z,18.30
2022-08-04T02:21:00.381Z,18.10
2022-08-04T02:23:37.137Z,18.10
2022-08-04T02:26:07.109Z,18.00
2022-08-04T02:28:48.176Z,17.90
2022-08-04T02:31:25.538Z,17.90
2022-08-04T02:34:06.507Z,17.80
2022-08-04T02:36:38.092Z,17.80
2022-08-04T02:39:08.023Z,17.90
2022-08-04T02:41:40.144Z,17.90
2022-08-04T02:44:10.088Z,17.90
2022-08-04T02:46:42.536Z,17.90
2022-08-04T02:49:12.147Z,17.90
2022-08-04T02:51:43.394Z,17.80
2022-08-04T02:54:11.992Z,17.80
2022-08-04T02:56:41.904Z,18.00
2022-08-04T02:59:13.543Z,17.90
2022-08-04T03:01:57.769Z,17.90
2022-08-04T03:04:43.988Z,18.00
2022-08-04T03:07:56.784Z,18.00
2022-08-04T03:11:06.801Z,17.90
2022-08-04T03:14:09.533Z,17.80
2022-08-04T03:17:18.350Z,17.70
2022-08-04T03:20:23.910Z,17.50
2022-08-04T03:23:22.756Z,17.40
2022-08-04T03:26:27.911Z,17.40
2022-08-04T03:29:37.019Z,17.30
2022-08-04T03:32:40.407Z,17.30
2022-08-04T03:35:26.230Z,17.20
2022-08-04T03:38:14.609Z,17.20
2022-08-04T03:41:05.226Z,17.10
2022-08-04T03:44:24.602Z,17.10
2022-08-04T03:47:16.463Z,17.10
2022-08-04T03:50:13.940Z,17.10
2022-08-04T03:53:09.410Z,17.00
2022-08-04T03:55:49.481Z,17.00
2022-08-04T03:58:40.867Z,17.00
2022-08-04T04:01:25.334Z,17.00
2022-08-04T04:04:31.096Z,17.00
2022-08-04T04:07:36.172Z,17.00
2022-08-04T04:10:29.533Z,17.30
2022-08-04T04:13:36.224Z,17.80
2022-08-04T04:16:41.035Z,18.00
2022-08-04T04:19:32.274Z,18.10
2022-08-04T04:22:26.160Z,18.00
2022-08-04T04:25:05.833Z,18.20
2022-08-04T04:27:43.053Z,18.30
2022-08-04T04:30:17.431Z,18.30
2022-08-04T04:33:01.055Z,18.40
2022-08-04T04:35:39.458Z,18.40
2022-08-04T04:38:49.603Z,18.40
2022-08-04T04:41:49.129Z,18.50
2022-08-04T04:44:46.441Z,18.60
2022-08-04T04:48:07.004Z,18.70
2022-08-04T04:50:16.963Z,18.70
2022-08-04T04:52:50.909Z,18.80
2022-08-04T04:55:22.716Z,18.90
2022-08-04T04:57:55.655Z,19.00
2022-08-04T05:00:27.485Z,19.10
2022-08-04T05:03:31.255Z,19.20
2022-08-04T05:06:19.412Z,19.30
2022-08-04T05:09:05.175Z,19.40
2022-08-04T05:12:02.919Z,19.50
2022-08-04T05:14:42.534Z,19.60
2022-08-04T05:17:19.902Z,19.60
2022-08-04T05:19:57.412Z,19.60
2022-08-04T05:22:35.059Z,19.70
2022-08-04T05:25:07.505Z,19.70
2022-08-04T05:27:42.646Z,19.80
2022-08-04T05:30:13.609Z,19.80
2022-08-04T05:32:57.395Z,19.90
2022-08-04T05:36:03.547Z,19.90
2022-08-04T05:38:27.628Z,20.00
2022-08-04T05:40:56.617Z,20.00
2022-08-04T05:43:25.562Z,20.00
2022-08-04T05:45:57.840Z,20.20
2022-08-04T05:48:26.966Z,20.20
2022-08-04T05:50:58.956Z,20.40
2022-08-04T05:53:30.107Z,20.40
2022-08-04T05:56:00.100Z,20.50
2022-08-04T05:58:30.968Z,20.70
2022-08-04T06:01:01.925Z,20.80
2022-08-04T06:03:31.981Z,20.90
2022-08-04T06:06:01.113Z,21.00
2022-08-04T06:08:31.477Z,21.00
2022-08-04T06:11:03.683Z,21.10
2022-08-04T06:13:48.995Z,21.20
2022-08-04T06:16:30.092Z,21.10
2022-08-04T06:20:02.256Z,21.20
2022-08-04T06:21:52.470Z,21.20
2022-08-04T06:24:23.387Z,21.40
2022-08-04T06:26:52.674Z,21.50
2022-08-04T06:29:27.014Z,21.70
2022-08-04T06:32:26.714Z,21.90
2022-08-04T06:34:53.331Z,21.90
2022-08-04T06:37:23.178Z,22.00
2022-08-04T06:40:30.063Z,22.10
2022-08-04T06:43:02.021Z,22.40
2022-08-04T06:45:30.689Z,22.60
2022-08-04T06:48:02.093Z,22.60
2022-08-04T06:51:27.495Z,22.70
2022-08-04T06:53:20.427Z,22.70
2022-08-04T06:55:51.251Z,22.70
2022-08-04T06:58:21.747Z,22.50
2022-08-04T07:00:50.725Z,22.40
2022-08-04T07:03:21.902Z,22.50
2022-08-04T07:05:52.456Z,22.50
2022-08-04T07:08:21.105Z,22.50
2022-08-04T07:10:50.421Z,22.40
2022-08-04T07:13:20.858Z,22.50
2022-08-04T07:15:49.860Z,22.50
2022-08-04T07:18:19.589Z,22.50
2022-08-04T07:20:48.925Z,22.60
2022-08-04T07:23:19.881Z,23.00
2022-08-04T07:26:01.029Z,23.30
2022-08-04T07:28:42.069Z,23.70
2022-08-04T07:31:34.492Z,24.10
2022-08-04T07:34:16.779Z,24.30
2022-08-04T07:36:54.986Z,24.50
2022-08-04T07:39:27.424Z,24.80
2022-08-04T07:42:02.345Z,25.00
2022-08-04T07:44:32.430Z,25.00
2022-08-04T07:47:01.659Z,24.70
2022-08-04T07:49:56.820Z,24.60
2022-08-04T07:52:21.098Z,24.50
2022-08-04T07:54:51.622Z,24.40
2022-08-04T07:57:40.686Z,24.50
2022-08-04T08:00:10.107Z,24.40
2022-08-04T08:02:39.318Z,24.60
2022-08-04T08:05:11.228Z,24.50
2022-08-04T08:07:50.521Z,24.50
2022-08-04T08:10:23.754Z,24.40
2022-08-04T08:12:52.643Z,24.50
2022-08-04T08:15:22.012Z,24.70
2022-08-04T08:18:00.131Z,24.80
2022-08-04T08:20:32.337Z,24.80
2022-08-04T08:23:02.408Z,24.70
2022-08-04T08:25:32.772Z,24.60
2022-08-04T08:28:01.331Z,24.50
2022-08-04T08:30:31.525Z,24.40
2022-08-04T08:33:05.753Z,24.50
2022-08-04T08:35:53.369Z,24.30
2022-08-04T08:38:38.394Z,24.10
2022-08-04T08:41:30.961Z,24.00
2022-08-04T08:44:37.573Z,24.00
2022-08-04T08:47:29.507Z,23.90
2022-08-04T08:51:04.053Z,23.90
2022-08-04T08:53:50.364Z,23.90
2022-08-04T08:56:31.285Z,24.00
2022-08-04T08:59:31.039Z,24.20
2022-08-04T09:02:13.573Z,24.30
2022-08-04T09:04:59.525Z,24.50
2022-08-04T09:07:52.486Z,24.60
2022-08-04T09:10:31.838Z,24.70
2022-08-04T09:13:05.533Z,24.70
2022-08-04T09:15:39.274Z,24.60
2022-08-04T09:18:13.779Z,24.60
2022-08-04T09:20:47.725Z,25.00
2022-08-04T09:23:25.123Z,25.30
2022-08-04T09:26:02.367Z,25.50
2022-08-04T09:28:53.586Z,25.60
2022-08-04T09:31:25.657Z,25.90
2022-08-04T09:34:02.738Z,26.20
2022-08-04T09:36:41.008Z,26.10
2022-08-04T09:39:18.851Z,26.10
2022-08-04T09:42:01.705Z,26.00
2022-08-04T09:44:52.681Z,26.00
2022-08-04T09:47:39.663Z,25.90
2022-08-04T09:50:33.480Z,25.90
2022-08-04T09:53:14.412Z,26.20
2022-08-04T09:55:56.365Z,26.40
2022-08-04T09:58:39.875Z,26.50
2022-08-04T10:01:11.108Z,26.40
2022-08-04T10:03:42.315Z,26.50
2022-08-04T10:06:26.560Z,26.50
2022-08-04T10:09:08.975Z,26.60
2022-08-04T10:11:55.606Z,26.70
2022-08-04T10:14:39.464Z,27.10
2022-08-04T10:17:23.256Z,27.50
2022-08-04T10:19:59.630Z,27.60
2022-08-04T10:22:40.794Z,27.40
2022-08-04T10:26:05.966Z,27.30
2022-08-04T10:28:24.397Z,27.00
2022-08-04T10:31:00.645Z,27.10
2022-08-04T10:33:34.450Z,27.20
2022-08-04T10:36:05.516Z,26.90
2022-08-04T10:38:40.864Z,26.90
2022-08-04T10:41:14.387Z,26.90
2022-08-04T10:43:50.697Z,27.20
2022-08-04T10:46:26.343Z,27.70
2022-08-04T10:48:59.039Z,28.20
2022-08-04T10:51:57.479Z,28.60
2022-08-04T10:54:28.471Z,28.40
2022-08-04T10:57:00.478Z,28.30
2022-08-04T10:59:41.908Z,28.50
2022-08-04T11:02:27.093Z,28.50
2022-08-04T11:05:07.548Z,28.60
2022-08-04T11:07:38.653Z,28.20
2022-08-04T11:10:08.935Z,27.60
2022-08-04T11:12:39.553Z,27.30
2022-08-04T11:15:13.329Z,27.10
2022-08-04T11:17:45.452Z,27.00
2022-08-04T11:20:34.720Z,27.30
2022-08-04T11:23:08.074Z,27.60
2022-08-04T11:25:52.133Z,28.20
2022-08-04T11:28:36.862Z,28.60
2022-08-04T11:31:08.791Z,28.90
2022-08-04T11:33:48.699Z,29.10
2022-08-04T11:36:23.543Z,29.50
2022-08-04T11:39:01.327Z,29.90
2022-08-04T11:41:40.665Z,30.00
2022-08-04T11:44:14.472Z,29.70
2022-08-04T11:46:46.487Z,29.50
2022-08-04T11:49:25.372Z,29.50
2022-08-04T11:51:56.948Z,29.80
2022-08-04T11:54:25.267Z,30.50
2022-08-04T11:56:53.948Z,30.70
2022-08-04T11:59:24.845Z,30.90
2022-08-04T12:02:07.476Z,31.20
2022-08-04T12:04:51.384Z,31.00
2022-08-04T12:07:41.678Z,31.10
2022-08-04T12:10:37.985Z,30.80
2022-08-04T12:13:20.103Z,30.50
2022-08-04T12:15:58.911Z,30.40
2022-08-04T12:18:34.336Z,30.60
2022-08-04T12:21:09.895Z,30.90
2022-08-04T12:23:41.509Z,30.50
2022-08-04T12:26:15.283Z,30.50
2022-08-04T12:29:09.146Z,30.10
2022-08-04T12:31:43.249Z,29.60
2022-08-04T12:34:16.362Z,28.90
2022-08-04T12:36:55.779Z,28.10
2022-08-04T12:39:28.008Z,27.80
2022-08-04T12:42:04.721Z,28.00
2022-08-04T12:44:38.328Z,28.90
2022-08-04T12:47:27.004Z,29.50
2022-08-04T12:50:02.983Z,29.90
2022-08-04T12:53:00.451Z,30.00
2022-08-04T12:55:28.735Z,29.90
2022-08-04T12:57:58.502Z,29.50
2022-08-04T13:00:38.253Z,29.60
2022-08-04T13:03:12.782Z,29.50
2022-08-04T13:05:42.806Z,29.00
2022-08-04T13:08:15.535Z,28.80
2022-08-04T13:10:48.062Z,29.20
2022-08-04T13:13:19.571Z,29.40
2022-08-04T13:15:58.940Z,29.50
2022-08-04T13:18:32.487Z,30.10
2022-08-04T13:21:20.659Z,30.50
2022-08-04T13:24:10.880Z,30.40
2022-08-04T13:26:54.041Z,30.10
2022-08-04T13:29:57.858Z,29.50
2022-08-04T13:32:25.375Z,29.40
2022-08-04T13:34:59.033Z,29.70
2022-08-04T13:37:33.245Z,29.30
2022-08-04T13:40:05.466Z,29.10
2022-08-04T13:42:36.013Z,29.50
2022-08-04T13:45:07.441Z,29.70
2022-08-04T13:47:39.134Z,29.90
2022-08-04T13:50:19.434Z,30.20
2022-08-04T13:52:49.667Z,30.30
2022-08-04T13:55:28.385Z,30.40
2022-08-04T13:58:00.485Z,30.10
2022-08-04T14:00:46.359Z,29.50
2022-08-04T14:03:24.771Z,29.70
2022-08-04T14:06:19.210Z,29.70
2022-08-04T14:08:50.974Z,29.50
2022-08-04T14:12:08.983Z,28.70
2022-08-04T14:14:16.860Z,28.80
2022-08-04T14:16:59.368Z,29.20
2022-08-04T14:19:32.587Z,29.20
2022-08-04T14:22:04.591Z,28.70
2022-08-04T14:24:32.812Z,28.10
2022-08-04T14:27:03.096Z,27.90
2022-08-04T14:29:41.835Z,27.70
2022-08-04T14:32:13.895Z,27.70
2022-08-04T14:34:45.664Z,27.90
2022-08-04T14:37:19.388Z,28.60
2022-08-04T14:40:18.066Z,28.50
2022-08-04T14:42:55.402Z,28.60
2022-08-04T14:45:35.493Z,28.50
2022-08-04T14:48:08.180Z,28.60
2022-08-04T14:50:38.901Z,28.50
2022-08-04T14:53:11.135Z,28.40
2022-08-04T14:55:40.939Z,28.60
2022-08-04T14:58:34.924Z,28.40
2022-08-04T15:01:09.869Z,28.00
2022-08-04T15:03:51.046Z,28.00
2022-08-04T15:06:23.898Z,28.30
2022-08-04T15:08:53.074Z,28.40
2022-08-04T15:11:23.615Z,28.50
2022-08-04T15:13:54.396Z,28.40
2022-08-04T15:16:24.176Z,28.30
2022-08-04T15:18:54.545Z,28.20
2022-08-04T15:21:26.039Z,28.20
2022-08-04T15:23:54.523Z,28.20
2022-08-04T15:26:28.865Z,28.00
2022-08-04T15:33:00.493Z,27.70
2022-08-04T15:35:38.718Z,27.80
2022-08-04T15:38:15.028Z,27.60
2022-08-04T15:40:48.758Z,27.80
2022-08-04T15:43:31.930Z,28.20
2022-08-04T15:46:42.383Z,28.10
2022-08-04T15:48:53.645Z,27.90
2022-08-04T15:51:32.961Z,27.70
2022-08-04T15:54:27.959Z,27.70
2022-08-04T15:57:02.603Z,27.30
2022-08-04T16:00:01.115Z,27.00
2022-08-04T16:02:51.758Z,26.80
2022-08-04T16:05:37.080Z,26.50
2022-08-04T16:08:20.194Z,26.60
2022-08-04T16:10:50.567Z,26.00
2022-08-04T16:13:20.805Z,25.40
2022-08-04T16:15:51.845Z,25.00
2022-08-04T16:18:43.731Z,24.80
2022-08-04T16:21:24.871Z,25.10
2022-08-04T16:24:10.737Z,25.50
2022-08-04T16:26:53.739Z,25.10
2022-08-04T16:29:34.150Z,25.00
2022-08-04T16:32:14.275Z,24.90
2022-08-04T16:34:55.119Z,24.80
2022-08-04T16:37:30.456Z,24.60
2022-08-04T16:40:35.969Z,24.50
2022-08-04T16:43:08.304Z,24.30
2022-08-04T16:45:44.782Z,24.30
2022-08-04T16:48:14.711Z,24.20
2022-08-04T16:50:52.618Z,24.10
2022-08-04T16:53:53.702Z,24.00
2022-08-04T16:56:11.724Z,23.70
2022-08-04T16:58:52.933Z,23.70
2022-08-04T17:01:32.945Z,23.40
2022-08-04T17:04:06.453Z,23.20
2022-08-04T17:06:38.695Z,23.20
2022-08-04T17:09:10.883Z,23.30
2022-08-04T17:11:39.402Z,23.30
2022-08-04T17:14:08.047Z,23.30
2022-08-04T17:16:38.515Z,23.20
2022-08-04T17:19:24.469Z,23.00
2022-08-04T17:22:04.133Z,23.00
2022-08-04T17:24:34.452Z,23.00
2022-08-04T17:27:04.275Z,23.00
2022-08-04T17:29:42.883Z,22.90
2022-08-04T17:32:18.786Z,22.90
2022-08-04T17:34:50.955Z,22.90
2022-08-04T17:37:52.015Z,22.70
2022-08-04T17:40:13.352Z,22.70
2022-08-04T17:42:44.994Z,22.60
2022-08-04T17:48:10.199Z,22.50
2022-08-04T17:50:43.361Z,22.40
2022-08-04T17:53:13.638Z,22.40
2022-08-04T17:55:47.204Z,22.30
2022-08-04T17:58:20.844Z,22.30
2022-08-04T18:03:52.898Z,22.40
2022-08-04T18:06:23.212Z,22.40
2022-08-04T18:08:59.349Z,22.40
2022-08-04T18:11:54.277Z,22.30
2022-08-04T18:14:26.043Z,22.20
2022-08-04T18:16:57.907Z,22.20
2022-08-04T18:19:26.211Z,22.10
2022-08-04T18:22:01.156Z,22.10
2022-08-04T18:24:35.383Z,22.10
2022-08-04T18:27:23.794Z,22.10
2022-08-04T18:30:33.435Z,22.10
2022-08-04T18:33:04.401Z,22.10
2022-08-04T18:36:31.361Z,22.10
2022-08-04T18:38:23.529Z,22.00
2022-08-04T18:40:54.751Z,21.90
2022-08-04T18:43:28.214Z,21.90
2022-08-04T18:45:59.583Z,21.90
2022-08-04T18:48:36.957Z,21.90
2022-08-04T18:51:10.143Z,21.90
2022-08-04T18:53:44.894Z,21.90
2022-08-04T18:56:29.896Z,21.90
2022-08-04T18:59:01.036Z,21.90
2022-08-04T19:02:09.196Z,21.90
2022-08-04T19:04:33.409Z,21.80
2022-08-04T19:07:25.103Z,21.80
2022-08-04T19:09:58.139Z,21.80
2022-08-04T19:12:29.938Z,21.80
2022-08-04T19:15:08.554Z,21.70
2022-08-04T19:17:53.774Z,21.70
2022-08-04T19:20:27.154Z,21.60
2022-08-04T19:24:11.123Z,21.60
2022-08-04T19:25:58.627Z,21.50
2022-08-04T19:28:34.228Z,21.50
2022-08-04T19:31:04.191Z,21.30
2022-08-04T19:33:59.245Z,21.30
2022-08-04T19:39:11.993Z,21.20
2022-08-04T19:42:05.573Z,21.20
2022-08-04T19:44:30.541Z,21.10
2022-08-04T19:47:00.654Z,21.10
2022-08-04T19:50:03.925Z,21.20
2022-08-04T19:52:33.913Z,21.20
2022-08-04T19:55:10.564Z,21.10
2022-08-04T19:57:45.992Z,21.10
2022-08-04T20:00:26.166Z,21.10
2022-08-04T20:03:01.793Z,21.00
2022-08-04T20:05:52.836Z,21.10
2022-08-04T20:08:20.282Z,21.10
2022-08-04T20:10:51.994Z,21.10
2022-08-04T20:13:21.053Z,21.00
2022-08-04T20:15:57.519Z,21.00
2022-08-04T20:18:36.763Z,21.00
2022-08-04T20:21:19.258Z,21.00
2022-08-04T20:23:52.758Z,21.00
2022-08-04T20:26:21.087Z,21.00
2022-08-04T20:28:51.799Z,21.00
2022-08-04T20:31:21.885Z,20.90
2022-08-04T20:36:38.436Z,20.90
2022-08-04T20:39:18.298Z,20.90
2022-08-04T20:41:49.811Z,20.90
2022-08-04T20:44:24.149Z,20.80
2022-08-04T20:46:54.098Z,20.80
2022-08-04T20:49:22.399Z,20.80
2022-08-04T20:52:13.290Z,20.70
2022-08-04T20:54:48.385Z,20.70
2022-08-04T20:57:17.473Z,20.70
2022-08-04T21:00:07.783Z,20.70
2022-08-04T21:02:37.812Z,20.60
2022-08-04T21:05:10.519Z,20.60
2022-08-04T21:07:43.737Z,20.60
2022-08-04T21:10:17.185Z,20.60
2022-08-04T21:12:50.149Z,20.60
2022-08-04T21:15:24.738Z,20.50
2022-08-04T21:17:59.164Z,20.40
2022-08-04T21:20:33.976Z,20.50
2022-08-04T21:23:04.901Z,20.50
2022-08-04T21:25:42.821Z,20.50
2022-08-04T21:28:12.160Z,20.40
2022-08-04T21:30:54.449Z,20.40
2022-08-04T21:33:36.093Z,20.40
2022-08-04T21:36:16.169Z,20.40
2022-08-04T21:38:51.348Z,20.40
2022-08-04T21:41:26.949Z,20.40
2022-08-04T21:43:58.943Z,20.30
2022-08-04T21:46:27.573Z,20.30
2022-08-04T21:49:00.642Z,20.30
2022-08-04T21:51:58.973Z,20.20
2022-08-04T21:54:22.370Z,20.20
2022-08-04T21:56:52.437Z,20.20
2022-08-04T22:02:09.925Z,20.20
2022-08-04T22:04:39.722Z,20.20
2022-08-04T22:07:07.974Z,20.20
2022-08-04T22:09:38.532Z,20.20
2022-08-04T22:14:59.930Z,20.20
2022-08-04T22:17:35.389Z,20.20
2022-08-04T22:20:07.113Z,20.20
2022-08-04T22:23:03.388Z,20.20
2022-08-04T22:25:45.016Z,20.10
2022-08-04T22:28:24.551Z,20.10
2022-08-04T22:30:57.050Z,20.10
2022-08-04T22:33:54.724Z,20.10
2022-08-04T22:36:17.210Z,20.10
2022-08-04T22:38:54.283Z,20.00
2022-08-04T22:41:34.146Z,19.90
2022-08-04T22:44:18.623Z,19.80
2022-08-04T22:46:51.186Z,19.70
2022-08-04T22:49:25.241Z,19.60
2022-08-04T22:52:02.879Z,19.50
2022-08-04T22:54:38.359Z,19.50
2022-08-04T22:57:09.263Z,19.40
2022-08-04T22:59:42.891Z,19.40
2022-08-04T23:02:11.675Z,19.30
2022-08-04T23:04:43.025Z,19.30
2022-08-04T23:07:15.329Z,19.20
2022-08-04T23:09:49.861Z,19.20
2022-08-04T23:12:26.405Z,19.20
2022-08-04T23:14:56.093Z,19.10
2022-08-04T23:17:24.812Z,19.20
2022-08-04T23:19:58.234Z,19.20
2022-08-04T23:22:42.153Z,19.20
2022-08-04T23:25:16.398Z,19.30
2022-08-04T23:27:50.474Z,19.30
2022-08-04T23:30:24.423Z,19.30
2022-08-04T23:32:54.078Z,19.20
2022-08-04T23:35:22.855Z,19.20
2022-08-04T23:37:57.419Z,19.30
2022-08-04T23:40:32.697Z,19.30
2022-08-04T23:43:12.148Z,19.20
2022-08-04T23:46:06.327Z,19.20
2022-08-04T23:48:37.136Z,19.20
2022-08-04T23:51:14.952Z,19.10
2022-08-04T23:54:03.254Z,19.10
2022-08-04T23:56:33.170Z,19.00
2022-08-04T23:59:03.646Z,19.00
